sensor_id;sensor_type;location;lat;lon;timestamp;P1;durP1;ratioP1;P2;durP2;ratioP2
13386;SDS011;6763;48.524;9.044;2022-08-01T00:01:34;2.03;;;1.50;;
13386;SDS011;6763;48.524;9.044;2022-08-01T00:04:00;1.50;;;1.40;;
13386;SDS011;6763;48.524;9.044;2022-08-01T00:06:25;2.15;;;1.40;;
13386;SDS011;6763;48.524;9.044;2022-08-01T00:08:50;2.20;;;1.30;;
13386;SDS011;6763;48.524;9.044;2022-08-01T00:11:16;1.55;;;1.30;;
13386;SDS011;6763;48.524;9.044;2022-08-01T00:13:41;2.33;;;1.60;;
13386;SDS011;6763;48.524;9.044;2022-08-01T00:16:06;1.40;;;1.30;;
13386;SDS011;6763;48.524;9.044;2022-08-01T00:18:32;3.08;;;1.42;;
13386;SDS011;6763;48.524;9.044;2022-08-01T00:20:58;2.45;;;1.30;;
13386;SDS011;6763;48.524;9.044;2022-08-01T00:23:23;2.17;;;1.10;;
13386;SDS011;6763;48.524;9.044;2022-08-01T00:25:48;2.00;;;1.20;;
13386;SDS011;6763;48.524;9.044;2022-08-01T00:28:14;1.70;;;1.27;;
13386;SDS011;6763;48.524;9.044;2022-08-01T00:30:39;1.70;;;1.40;;
13386;SDS011;6763;48.524;9.044;2022-08-01T00:33:04;3.88;;;1.30;;
13386;SDS011;6763;48.524;9.044;2022-08-01T00:35:30;2.58;;;1.50;;
13386;SDS011;6763;48.524;9.044;2022-08-01T00:37:55;1.45;;;1.35;;
13386;SDS011;6763;48.524;9.044;2022-08-01T00:40:21;2.35;;;1.75;;
13386;SDS011;6763;48.524;9.044;2022-08-01T00:42:46;2.58;;;1.58;;
13386;SDS011;6763;48.524;9.044;2022-08-01T00:45:12;2.08;;;1.58;;
13386;SDS011;6763;48.524;9.044;2022-08-01T00:47:38;1.70;;;1.60;;
13386;SDS011;6763;48.524;9.044;2022-08-01T00:50:04;3.60;;;1.40;;
13386;SDS011;6763;48.524;9.044;2022-08-01T00:52:30;1.85;;;1.52;;
13386;SDS011;6763;48.524;9.044;2022-08-01T00:54:55;1.73;;;1.58;;
13386;SDS011;6763;48.524;9.044;2022-08-01T00:57:21;1.40;;;1.30;;
13386;SDS011;6763;48.524;9.044;2022-08-01T00:59:47;2.10;;;1.70;;
13386;SDS011;6763;48.524;9.044;2022-08-01T01:02:12;1.77;;;1.52;;
13386;SDS011;6763;48.524;9.044;2022-08-01T01:04:38;1.50;;;1.40;;
13386;SDS011;6763;48.524;9.044;2022-08-01T01:07:06;1.45;;;1.35;;
13386;SDS011;6763;48.524;9.044;2022-08-01T01:12:33;1.98;;;1.60;;
13386;SDS011;6763;48.524;9.044;2022-08-01T01:17:56;1.40;;;1.30;;
13386;SDS011;6763;48.524;9.044;2022-08-01T01:20:49;2.30;;;1.50;;
13386;SDS011;6763;48.524;9.044;2022-08-01T01:23:40;1.75;;;1.58;;
13386;SDS011;6763;48.524;9.044;2022-08-01T01:29:11;1.60;;;1.50;;
13386;SDS011;6763;48.524;9.044;2022-08-01T01:31:51;1.50;;;1.40;;
13386;SDS011;6763;48.524;9.044;2022-08-01T01:34:49;2.15;;;1.40;;
13386;SDS011;6763;48.524;9.044;2022-08-01T01:37:19;2.30;;;1.67;;
13386;SDS011;6763;48.524;9.044;2022-08-01T01:39:48;1.90;;;1.50;;
13386;SDS011;6763;48.524;9.044;2022-08-01T01:42:16;1.63;;;1.52;;
13386;SDS011;6763;48.524;9.044;2022-08-01T01:44:43;3.10;;;1.70;;
13386;SDS011;6763;48.524;9.044;2022-08-01T01:47:14;2.15;;;1.67;;
13386;SDS011;6763;48.524;9.044;2022-08-01T01:49:41;2.17;;;1.50;;
13386;SDS011;6763;48.524;9.044;2022-08-01T01:52:09;2.05;;;1.85;;
13386;SDS011;6763;48.524;9.044;2022-08-01T01:54:39;1.70;;;1.60;;
13386;SDS011;6763;48.524;9.044;2022-08-01T01:57:07;1.70;;;1.58;;
13386;SDS011;6763;48.524;9.044;2022-08-01T01:59:35;1.50;;;1.40;;
13386;SDS011;6763;48.524;9.044;2022-08-01T02:02:03;1.63;;;1.23;;
13386;SDS011;6763;48.524;9.044;2022-08-01T02:04:30;2.13;;;1.60;;
13386;SDS011;6763;48.524;9.044;2022-08-01T02:06:57;3.05;;;1.90;;
13386;SDS011;6763;48.524;9.044;2022-08-01T02:09:24;1.80;;;1.70;;
13386;SDS011;6763;48.524;9.044;2022-08-01T02:11:52;1.95;;;1.50;;
13386;SDS011;6763;48.524;9.044;2022-08-01T02:14:19;2.67;;;1.88;;
13386;SDS011;6763;48.524;9.044;2022-08-01T02:16:47;3.08;;;1.80;;
13386;SDS011;6763;48.524;9.044;2022-08-01T02:19:14;1.27;;;1.17;;
13386;SDS011;6763;48.524;9.044;2022-08-01T02:30:25;2.90;;;1.85;;
13386;SDS011;6763;48.524;9.044;2022-08-01T02:32:59;1.95;;;1.75;;
13386;SDS011;6763;48.524;9.044;2022-08-01T02:35:30;2.15;;;1.63;;
13386;SDS011;6763;48.524;9.044;2022-08-01T02:37:58;1.85;;;1.63;;
13386;SDS011;6763;48.524;9.044;2022-08-01T02:40:26;1.98;;;1.80;;
13386;SDS011;6763;48.524;9.044;2022-08-01T02:42:53;1.92;;;1.60;;
13386;SDS011;6763;48.524;9.044;2022-08-01T02:45:22;3.28;;;1.63;;
13386;SDS011;6763;48.524;9.044;2022-08-01T02:47:50;2.13;;;1.65;;
13386;SDS011;6763;48.524;9.044;2022-08-01T02:50:20;1.90;;;1.70;;
13386;SDS011;6763;48.524;9.044;2022-08-01T02:52:49;1.77;;;1.40;;
13386;SDS011;6763;48.524;9.044;2022-08-01T02:55:16;3.60;;;1.50;;
13386;SDS011;6763;48.524;9.044;2022-08-01T02:57:44;2.22;;;1.80;;
13386;SDS011;6763;48.524;9.044;2022-08-01T03:00:12;2.72;;;1.70;;
13386;SDS011;6763;48.524;9.044;2022-08-01T03:02:39;1.88;;;1.60;;
13386;SDS011;6763;48.524;9.044;2022-08-01T03:05:06;2.00;;;1.55;;
13386;SDS011;6763;48.524;9.044;2022-08-01T03:07:33;1.85;;;1.73;;
13386;SDS011;6763;48.524;9.044;2022-08-01T03:10:00;1.58;;;1.48;;
13386;SDS011;6763;48.524;9.044;2022-08-01T03:12:27;1.90;;;1.77;;
13386;SDS011;6763;48.524;9.044;2022-08-01T03:14:56;1.90;;;1.67;;
13386;SDS011;6763;48.524;9.044;2022-08-01T03:17:25;2.22;;;1.85;;
13386;SDS011;6763;48.524;9.044;2022-08-01T03:19:52;5.15;;;2.00;;
13386;SDS011;6763;48.524;9.044;2022-08-01T03:22:18;2.20;;;1.85;;
13386;SDS011;6763;48.524;9.044;2022-08-01T03:24:48;1.70;;;1.60;;
13386;SDS011;6763;48.524;9.044;2022-08-01T03:27:16;2.00;;;1.80;;
13386;SDS011;6763;48.524;9.044;2022-08-01T03:29:44;2.05;;;1.73;;
13386;SDS011;6763;48.524;9.044;2022-08-01T03:32:10;2.00;;;1.75;;
13386;SDS011;6763;48.524;9.044;2022-08-01T03:34:38;2.40;;;2.20;;
13386;SDS011;6763;48.524;9.044;2022-08-01T03:37:23;3.00;;;2.33;;
13386;SDS011;6763;48.524;9.044;2022-08-01T03:39:53;2.95;;;1.90;;
13386;SDS011;6763;48.524;9.044;2022-08-01T03:42:24;2.70;;;2.28;;
13386;SDS011;6763;48.524;9.044;2022-08-01T03:45:01;4.68;;;2.00;;
13386;SDS011;6763;48.524;9.044;2022-08-01T03:47:31;2.25;;;2.05;;
13386;SDS011;6763;48.524;9.044;2022-08-01T03:49:59;2.50;;;1.95;;
13386;SDS011;6763;48.524;9.044;2022-08-01T03:52:27;2.08;;;1.73;;
13386;SDS011;6763;48.524;9.044;2022-08-01T03:54:55;2.20;;;2.00;;
13386;SDS011;6763;48.524;9.044;2022-08-01T03:57:23;2.15;;;1.75;;
13386;SDS011;6763;48.524;9.044;2022-08-01T03:59:50;2.55;;;2.03;;
13386;SDS011;6763;48.524;9.044;2022-08-01T04:02:16;3.50;;;1.90;;
13386;SDS011;6763;48.524;9.044;2022-08-01T04:04:43;2.53;;;2.20;;
13386;SDS011;6763;48.524;9.044;2022-08-01T04:09:54;2.05;;;1.73;;
13386;SDS011;6763;48.524;9.044;2022-08-01T04:12:20;3.10;;;2.15;;
13386;SDS011;6763;48.524;9.044;2022-08-01T04:14:46;2.17;;;1.67;;
13386;SDS011;6763;48.524;9.044;2022-08-01T04:17:11;2.08;;;1.88;;
13386;SDS011;6763;48.524;9.044;2022-08-01T04:19:37;2.15;;;1.88;;
13386;SDS011;6763;48.524;9.044;2022-08-01T04:22:02;2.80;;;2.03;;
13386;SDS011;6763;48.524;9.044;2022-08-01T04:24:28;2.67;;;2.33;;
13386;SDS011;6763;48.524;9.044;2022-08-01T04:26:57;2.15;;;1.90;;
13386;SDS011;6763;48.524;9.044;2022-08-01T04:29:25;2.20;;;1.95;;
13386;SDS011;6763;48.524;9.044;2022-08-01T04:31:53;2.42;;;2.00;;
13386;SDS011;6763;48.524;9.044;2022-08-01T04:34:21;2.25;;;2.05;;
13386;SDS011;6763;48.524;9.044;2022-08-01T04:36:49;2.58;;;1.88;;
13386;SDS011;6763;48.524;9.044;2022-08-01T04:39:16;2.17;;;1.98;;
13386;SDS011;6763;48.524;9.044;2022-08-01T04:41:44;4.90;;;2.33;;
13386;SDS011;6763;48.524;9.044;2022-08-01T04:44:11;2.03;;;1.83;;
13386;SDS011;6763;48.524;9.044;2022-08-01T04:46:38;4.10;;;2.38;;
13386;SDS011;6763;48.524;9.044;2022-08-01T04:49:05;1.73;;;1.63;;
13386;SDS011;6763;48.524;9.044;2022-08-01T04:51:33;2.53;;;2.33;;
13386;SDS011;6763;48.524;9.044;2022-08-01T04:53:59;2.25;;;2.05;;
13386;SDS011;6763;48.524;9.044;2022-08-01T04:56:26;3.28;;;2.33;;
13386;SDS011;6763;48.524;9.044;2022-08-01T04:58:51;2.40;;;2.20;;
13386;SDS011;6763;48.524;9.044;2022-08-01T05:01:37;2.40;;;2.00;;
13386;SDS011;6763;48.524;9.044;2022-08-01T05:04:02;2.50;;;2.30;;
13386;SDS011;6763;48.524;9.044;2022-08-01T05:06:27;3.20;;;2.10;;
13386;SDS011;6763;48.524;9.044;2022-08-01T05:08:53;3.83;;;1.83;;
13386;SDS011;6763;48.524;9.044;2022-08-01T05:11:18;2.28;;;2.00;;
13386;SDS011;6763;48.524;9.044;2022-08-01T05:13:43;2.00;;;1.80;;
13386;SDS011;6763;48.524;9.044;2022-08-01T05:16:09;11.95;;;2.10;;
13386;SDS011;6763;48.524;9.044;2022-08-01T05:18:34;2.65;;;2.03;;
13386;SDS011;6763;48.524;9.044;2022-08-01T05:20:59;2.20;;;1.95;;
13386;SDS011;6763;48.524;9.044;2022-08-01T05:23:25;2.22;;;2.00;;
13386;SDS011;6763;48.524;9.044;2022-08-01T05:25:51;2.25;;;2.05;;
13386;SDS011;6763;48.524;9.044;2022-08-01T05:28:16;2.95;;;2.10;;
13386;SDS011;6763;48.524;9.044;2022-08-01T05:30:41;3.58;;;1.92;;
13386;SDS011;6763;48.524;9.044;2022-08-01T05:33:07;5.82;;;2.03;;
13386;SDS011;6763;48.524;9.044;2022-08-01T05:35:32;2.67;;;2.03;;
13386;SDS011;6763;48.524;9.044;2022-08-01T05:37:57;2.40;;;2.20;;
13386;SDS011;6763;48.524;9.044;2022-08-01T05:40:23;3.53;;;2.28;;
13386;SDS011;6763;48.524;9.044;2022-08-01T05:42:48;3.58;;;2.13;;
13386;SDS011;6763;48.524;9.044;2022-08-01T05:45:13;3.60;;;2.13;;
13386;SDS011;6763;48.524;9.044;2022-08-01T05:47:39;3.78;;;1.85;;
13386;SDS011;6763;48.524;9.044;2022-08-01T05:50:04;2.10;;;1.92;;
13386;SDS011;6763;48.524;9.044;2022-08-01T05:52:30;2.30;;;2.10;;
13386;SDS011;6763;48.524;9.044;2022-08-01T05:54:55;2.45;;;1.80;;
13386;SDS011;6763;48.524;9.044;2022-08-01T05:57:21;3.20;;;2.00;;
13386;SDS011;6763;48.524;9.044;2022-08-01T05:59:46;2.35;;;2.03;;
13386;SDS011;6763;48.524;9.044;2022-08-01T06:02:12;2.85;;;2.10;;
13386;SDS011;6763;48.524;9.044;2022-08-01T06:04:37;3.33;;;2.30;;
13386;SDS011;6763;48.524;9.044;2022-08-01T06:07:02;2.30;;;2.10;;
13386;SDS011;6763;48.524;9.044;2022-08-01T06:09:28;2.30;;;2.10;;
13386;SDS011;6763;48.524;9.044;2022-08-01T06:11:55;2.40;;;2.17;;
13386;SDS011;6763;48.524;9.044;2022-08-01T06:14:21;2.25;;;2.05;;
13386;SDS011;6763;48.524;9.044;2022-08-01T06:16:46;2.20;;;2.00;;
13386;SDS011;6763;48.524;9.044;2022-08-01T06:19:11;5.63;;;2.22;;
13386;SDS011;6763;48.524;9.044;2022-08-01T06:21:37;2.20;;;2.00;;
13386;SDS011;6763;48.524;9.044;2022-08-01T06:24:02;2.78;;;2.20;;
13386;SDS011;6763;48.524;9.044;2022-08-01T06:26:28;3.42;;;2.25;;
13386;SDS011;6763;48.524;9.044;2022-08-01T06:28:53;2.20;;;2.00;;
13386;SDS011;6763;48.524;9.044;2022-08-01T06:31:18;2.28;;;2.08;;
13386;SDS011;6763;48.524;9.044;2022-08-01T06:33:44;2.55;;;2.33;;
13386;SDS011;6763;48.524;9.044;2022-08-01T06:36:09;2.58;;;2.30;;
13386;SDS011;6763;48.524;9.044;2022-08-01T06:38:35;2.60;;;1.90;;
13386;SDS011;6763;48.524;9.044;2022-08-01T06:41:00;2.97;;;2.10;;
13386;SDS011;6763;48.524;9.044;2022-08-01T06:43:25;2.65;;;2.40;;
13386;SDS011;6763;48.524;9.044;2022-08-01T06:45:51;3.58;;;2.33;;
13386;SDS011;6763;48.524;9.044;2022-08-01T06:48:16;3.40;;;2.15;;
13386;SDS011;6763;48.524;9.044;2022-08-01T06:50:41;3.85;;;1.95;;
13386;SDS011;6763;48.524;9.044;2022-08-01T06:53:07;2.40;;;2.20;;
13386;SDS011;6763;48.524;9.044;2022-08-01T06:55:32;3.65;;;2.50;;
13386;SDS011;6763;48.524;9.044;2022-08-01T06:57:58;2.70;;;2.20;;
13386;SDS011;6763;48.524;9.044;2022-08-01T07:00:24;2.40;;;2.20;;
13386;SDS011;6763;48.524;9.044;2022-08-01T07:02:50;2.47;;;2.00;;
13386;SDS011;6763;48.524;9.044;2022-08-01T07:05:17;3.65;;;1.83;;
13386;SDS011;6763;48.524;9.044;2022-08-01T07:07:42;2.35;;;2.15;;
13386;SDS011;6763;48.524;9.044;2022-08-01T07:10:08;5.45;;;2.13;;
13386;SDS011;6763;48.524;9.044;2022-08-01T07:12:34;2.72;;;2.20;;
13386;SDS011;6763;48.524;9.044;2022-08-01T07:15:03;2.25;;;2.05;;
13386;SDS011;6763;48.524;9.044;2022-08-01T07:17:29;2.28;;;2.08;;
13386;SDS011;6763;48.524;9.044;2022-08-01T07:19:55;4.95;;;2.13;;
13386;SDS011;6763;48.524;9.044;2022-08-01T07:22:20;2.05;;;1.85;;
13386;SDS011;6763;48.524;9.044;2022-08-01T07:24:46;2.15;;;1.95;;
13386;SDS011;6763;48.524;9.044;2022-08-01T07:27:11;2.28;;;1.70;;
13386;SDS011;6763;48.524;9.044;2022-08-01T07:29:37;2.33;;;1.95;;
13386;SDS011;6763;48.524;9.044;2022-08-01T07:32:02;3.83;;;2.05;;
13386;SDS011;6763;48.524;9.044;2022-08-01T07:34:28;2.13;;;1.80;;
13386;SDS011;6763;48.524;9.044;2022-08-01T07:36:53;2.35;;;1.70;;
13386;SDS011;6763;48.524;9.044;2022-08-01T07:39:19;3.53;;;1.83;;
13386;SDS011;6763;48.524;9.044;2022-08-01T07:41:44;2.92;;;1.77;;
13386;SDS011;6763;48.524;9.044;2022-08-01T07:44:10;2.42;;;2.10;;
13386;SDS011;6763;48.524;9.044;2022-08-01T07:46:35;3.53;;;1.70;;
13386;SDS011;6763;48.524;9.044;2022-08-01T07:49:01;2.22;;;2.00;;
13386;SDS011;6763;48.524;9.044;2022-08-01T07:51:26;1.73;;;1.63;;
13386;SDS011;6763;48.524;9.044;2022-08-01T07:53:51;1.52;;;1.42;;
13386;SDS011;6763;48.524;9.044;2022-08-01T07:56:17;2.33;;;1.50;;
13386;SDS011;6763;48.524;9.044;2022-08-01T07:58:42;1.98;;;1.40;;
13386;SDS011;6763;48.524;9.044;2022-08-01T08:01:07;1.52;;;1.42;;
13386;SDS011;6763;48.524;9.044;2022-08-01T08:03:33;1.60;;;1.48;;
13386;SDS011;6763;48.524;9.044;2022-08-01T08:05:58;2.15;;;1.95;;
13386;SDS011;6763;48.524;9.044;2022-08-01T08:08:24;1.92;;;1.52;;
13386;SDS011;6763;48.524;9.044;2022-08-01T08:10:49;1.92;;;1.67;;
13386;SDS011;6763;48.524;9.044;2022-08-01T08:13:15;2.20;;;1.73;;
13386;SDS011;6763;48.524;9.044;2022-08-01T08:15:40;2.00;;;1.70;;
13386;SDS011;6763;48.524;9.044;2022-08-01T08:18:06;2.15;;;1.77;;
13386;SDS011;6763;48.524;9.044;2022-08-01T08:20:32;2.10;;;1.83;;
13386;SDS011;6763;48.524;9.044;2022-08-01T08:22:58;1.85;;;1.65;;
13386;SDS011;6763;48.524;9.044;2022-08-01T08:25:24;1.73;;;1.40;;
13386;SDS011;6763;48.524;9.044;2022-08-01T08:27:50;1.90;;;1.80;;
13386;SDS011;6763;48.524;9.044;2022-08-01T08:30:15;2.72;;;1.45;;
13386;SDS011;6763;48.524;9.044;2022-08-01T08:32:41;1.98;;;1.73;;
13386;SDS011;6763;48.524;9.044;2022-08-01T08:35:07;1.88;;;1.70;;
13386;SDS011;6763;48.524;9.044;2022-08-01T08:37:33;2.08;;;1.88;;
13386;SDS011;6763;48.524;9.044;2022-08-01T08:40:00;1.77;;;1.42;;
13386;SDS011;6763;48.524;9.044;2022-08-01T08:42:25;2.10;;;1.83;;
13386;SDS011;6763;48.524;9.044;2022-08-01T08:44:51;2.22;;;1.92;;
13386;SDS011;6763;48.524;9.044;2022-08-01T08:47:19;1.58;;;1.40;;
13386;SDS011;6763;48.524;9.044;2022-08-01T08:49:46;2.10;;;1.73;;
13386;SDS011;6763;48.524;9.044;2022-08-01T08:52:13;1.73;;;1.63;;
13386;SDS011;6763;48.524;9.044;2022-08-01T08:54:40;2.50;;;1.55;;
13386;SDS011;6763;48.524;9.044;2022-08-01T08:57:06;1.85;;;1.70;;
13386;SDS011;6763;48.524;9.044;2022-08-01T08:59:32;1.60;;;1.50;;
13386;SDS011;6763;48.524;9.044;2022-08-01T09:01:58;1.45;;;1.35;;
13386;SDS011;6763;48.524;9.044;2022-08-01T09:04:24;1.75;;;1.65;;
13386;SDS011;6763;48.524;9.044;2022-08-01T09:06:51;2.28;;;1.73;;
13386;SDS011;6763;48.524;9.044;2022-08-01T09:09:17;2.45;;;1.85;;
13386;SDS011;6763;48.524;9.044;2022-08-01T09:11:42;1.85;;;1.60;;
13386;SDS011;6763;48.524;9.044;2022-08-01T09:14:09;2.20;;;1.42;;
13386;SDS011;6763;48.524;9.044;2022-08-01T09:16:35;2.20;;;1.80;;
13386;SDS011;6763;48.524;9.044;2022-08-01T09:19:09;2.28;;;2.08;;
13386;SDS011;6763;48.524;9.044;2022-08-01T09:21:39;1.92;;;1.73;;
13386;SDS011;6763;48.524;9.044;2022-08-01T09:24:19;1.63;;;1.52;;
13386;SDS011;6763;48.524;9.044;2022-08-01T09:26:45;2.13;;;1.83;;
13386;SDS011;6763;48.524;9.044;2022-08-01T09:29:16;3.35;;;1.73;;
13386;SDS011;6763;48.524;9.044;2022-08-01T09:31:44;2.28;;;1.80;;
13386;SDS011;6763;48.524;9.044;2022-08-01T09:34:12;2.65;;;1.80;;
13386;SDS011;6763;48.524;9.044;2022-08-01T09:39:16;2.17;;;1.40;;
13386;SDS011;6763;48.524;9.044;2022-08-01T09:41:43;1.60;;;1.50;;
13386;SDS011;6763;48.524;9.044;2022-08-01T09:44:09;2.45;;;1.42;;
13386;SDS011;6763;48.524;9.044;2022-08-01T09:46:34;1.52;;;1.42;;
13386;SDS011;6763;48.524;9.044;2022-08-01T09:49:02;1.92;;;1.48;;
13386;SDS011;6763;48.524;9.044;2022-08-01T09:54:03;1.45;;;1.35;;
13386;SDS011;6763;48.524;9.044;2022-08-01T09:56:50;1.60;;;1.30;;
13386;SDS011;6763;48.524;9.044;2022-08-01T09:59:15;1.73;;;1.60;;
13386;SDS011;6763;48.524;9.044;2022-08-01T10:01:42;1.58;;;1.48;;
13386;SDS011;6763;48.524;9.044;2022-08-01T10:04:12;1.48;;;1.38;;
13386;SDS011;6763;48.524;9.044;2022-08-01T10:06:44;2.53;;;1.50;;
13386;SDS011;6763;48.524;9.044;2022-08-01T10:09:11;1.45;;;1.35;;
13386;SDS011;6763;48.524;9.044;2022-08-01T10:11:38;2.85;;;1.50;;
13386;SDS011;6763;48.524;9.044;2022-08-01T10:14:05;1.70;;;1.50;;
13386;SDS011;6763;48.524;9.044;2022-08-01T10:16:32;2.05;;;1.63;;
13386;SDS011;6763;48.524;9.044;2022-08-01T10:18:59;1.40;;;1.20;;
13386;SDS011;6763;48.524;9.044;2022-08-01T10:21:26;1.80;;;1.50;;
13386;SDS011;6763;48.524;9.044;2022-08-01T10:23:52;1.30;;;1.20;;
13386;SDS011;6763;48.524;9.044;2022-08-01T10:26:19;3.15;;;1.30;;
13386;SDS011;6763;48.524;9.044;2022-08-01T10:28:47;2.75;;;1.23;;
13386;SDS011;6763;48.524;9.044;2022-08-01T10:31:13;1.63;;;1.33;;
13386;SDS011;6763;48.524;9.044;2022-08-01T10:33:41;1.40;;;1.30;;
13386;SDS011;6763;48.524;9.044;2022-08-01T10:36:07;1.65;;;1.48;;
13386;SDS011;6763;48.524;9.044;2022-08-01T10:38:33;1.50;;;1.40;;
13386;SDS011;6763;48.524;9.044;2022-08-01T10:40:59;1.40;;;1.30;;
13386;SDS011;6763;48.524;9.044;2022-08-01T10:43:27;1.60;;;1.50;;
13386;SDS011;6763;48.524;9.044;2022-08-01T10:45:53;1.20;;;1.10;;
13386;SDS011;6763;48.524;9.044;2022-08-01T10:48:24;1.67;;;1.40;;
13386;SDS011;6763;48.524;9.044;2022-08-01T10:50:55;1.60;;;1.50;;
13386;SDS011;6763;48.524;9.044;2022-08-01T10:53:25;1.45;;;1.35;;
13386;SDS011;6763;48.524;9.044;2022-08-01T10:58:29;1.65;;;1.55;;
13386;SDS011;6763;48.524;9.044;2022-08-01T11:01:14;1.77;;;1.50;;
13386;SDS011;6763;48.524;9.044;2022-08-01T11:03:40;1.60;;;1.50;;
13386;SDS011;6763;48.524;9.044;2022-08-01T11:06:07;2.00;;;1.50;;
13386;SDS011;6763;48.524;9.044;2022-08-01T11:08:42;1.60;;;1.40;;
13386;SDS011;6763;48.524;9.044;2022-08-01T11:11:15;1.60;;;1.17;;
13386;SDS011;6763;48.524;9.044;2022-08-01T11:16:43;1.77;;;1.60;;
13386;SDS011;6763;48.524;9.044;2022-08-01T11:19:08;1.83;;;1.30;;
13386;SDS011;6763;48.524;9.044;2022-08-01T11:27:20;1.52;;;1.33;;
13386;SDS011;6763;48.524;9.044;2022-08-01T11:32:33;1.77;;;1.52;;
13386;SDS011;6763;48.524;9.044;2022-08-01T11:35:11;2.55;;;1.63;;
13386;SDS011;6763;48.524;9.044;2022-08-01T11:37:36;1.90;;;1.67;;
13386;SDS011;6763;48.524;9.044;2022-08-01T11:40:36;1.50;;;1.40;;
13386;SDS011;6763;48.524;9.044;2022-08-01T11:43:37;1.40;;;1.30;;
13386;SDS011;6763;48.524;9.044;2022-08-01T11:45:50;2.13;;;1.65;;
13386;SDS011;6763;48.524;9.044;2022-08-01T11:48:18;2.10;;;1.90;;
13386;SDS011;6763;48.524;9.044;2022-08-01T11:50:51;1.60;;;1.50;;
13386;SDS011;6763;48.524;9.044;2022-08-01T11:53:18;1.50;;;1.40;;
13386;SDS011;6763;48.524;9.044;2022-08-01T11:55:48;1.95;;;1.70;;
13386;SDS011;6763;48.524;9.044;2022-08-01T11:58:15;2.80;;;1.77;;
13386;SDS011;6763;48.524;9.044;2022-08-01T12:00:55;1.70;;;1.60;;
13386;SDS011;6763;48.524;9.044;2022-08-01T12:03:25;2.13;;;1.92;;
13386;SDS011;6763;48.524;9.044;2022-08-01T12:05:55;2.95;;;1.65;;
13386;SDS011;6763;48.524;9.044;2022-08-01T12:08:28;2.08;;;1.77;;
13386;SDS011;6763;48.524;9.044;2022-08-01T12:10:59;1.90;;;1.60;;
13386;SDS011;6763;48.524;9.044;2022-08-01T12:13:26;2.50;;;1.67;;
13386;SDS011;6763;48.524;9.044;2022-08-01T12:15:51;1.77;;;1.48;;
13386;SDS011;6763;48.524;9.044;2022-08-01T12:18:17;2.13;;;1.40;;
13386;SDS011;6763;48.524;9.044;2022-08-01T12:20:43;1.60;;;1.50;;
13386;SDS011;6763;48.524;9.044;2022-08-01T12:23:12;1.63;;;1.52;;
13386;SDS011;6763;48.524;9.044;2022-08-01T12:25:39;1.73;;;1.63;;
13386;SDS011;6763;48.524;9.044;2022-08-01T12:28:06;1.42;;;1.33;;
13386;SDS011;6763;48.524;9.044;2022-08-01T12:30:34;2.05;;;1.80;;
13386;SDS011;6763;48.524;9.044;2022-08-01T12:33:01;2.75;;;1.63;;
13386;SDS011;6763;48.524;9.044;2022-08-01T12:35:31;1.85;;;1.60;;
13386;SDS011;6763;48.524;9.044;2022-08-01T12:37:58;1.65;;;1.40;;
13386;SDS011;6763;48.524;9.044;2022-08-01T12:40:30;1.65;;;1.55;;
13386;SDS011;6763;48.524;9.044;2022-08-01T12:42:58;1.65;;;1.45;;
13386;SDS011;6763;48.524;9.044;2022-08-01T12:45:26;1.67;;;1.45;;
13386;SDS011;6763;48.524;9.044;2022-08-01T12:48:07;1.50;;;1.25;;
13386;SDS011;6763;48.524;9.044;2022-08-01T12:50:34;1.63;;;1.52;;
13386;SDS011;6763;48.524;9.044;2022-08-01T12:53:02;3.63;;;1.45;;
13386;SDS011;6763;48.524;9.044;2022-08-01T12:55:28;2.60;;;1.40;;
13386;SDS011;6763;48.524;9.044;2022-08-01T12:58:06;1.58;;;1.42;;
13386;SDS011;6763;48.524;9.044;2022-08-01T13:00:33;2.42;;;1.52;;
13386;SDS011;6763;48.524;9.044;2022-08-01T13:05:45;1.63;;;1.52;;
13386;SDS011;6763;48.524;9.044;2022-08-01T13:08:22;2.22;;;1.77;;
13386;SDS011;6763;48.524;9.044;2022-08-01T13:11:01;1.70;;;1.60;;
13386;SDS011;6763;48.524;9.044;2022-08-01T13:13:46;1.23;;;1.13;;
13386;SDS011;6763;48.524;9.044;2022-08-01T13:16:12;2.15;;;1.48;;
13386;SDS011;6763;48.524;9.044;2022-08-01T13:18:38;1.55;;;1.45;;
13386;SDS011;6763;48.524;9.044;2022-08-01T13:23:33;1.73;;;1.50;;
13386;SDS011;6763;48.524;9.044;2022-08-01T13:25:58;1.63;;;1.27;;
13386;SDS011;6763;48.524;9.044;2022-08-01T13:28:25;1.73;;;1.42;;
13386;SDS011;6763;48.524;9.044;2022-08-01T13:31:01;3.25;;;1.30;;
13386;SDS011;6763;48.524;9.044;2022-08-01T13:33:45;1.50;;;1.40;;
13386;SDS011;6763;48.524;9.044;2022-08-01T13:36:12;1.58;;;1.48;;
13386;SDS011;6763;48.524;9.044;2022-08-01T13:38:39;1.98;;;1.60;;
13386;SDS011;6763;48.524;9.044;2022-08-01T13:41:23;1.55;;;1.45;;
13386;SDS011;6763;48.524;9.044;2022-08-01T13:43:49;4.55;;;1.60;;
13386;SDS011;6763;48.524;9.044;2022-08-01T13:46:14;1.60;;;1.50;;
13386;SDS011;6763;48.524;9.044;2022-08-01T13:48:40;1.80;;;1.70;;
13386;SDS011;6763;48.524;9.044;2022-08-01T13:51:05;2.20;;;1.55;;
13386;SDS011;6763;48.524;9.044;2022-08-01T13:53:31;1.50;;;1.40;;
13386;SDS011;6763;48.524;9.044;2022-08-01T13:55:56;1.75;;;1.65;;
13386;SDS011;6763;48.524;9.044;2022-08-01T13:58:22;1.70;;;1.58;;
13386;SDS011;6763;48.524;9.044;2022-08-01T14:00:47;1.50;;;1.40;;
13386;SDS011;6763;48.524;9.044;2022-08-01T14:03:13;1.60;;;1.48;;
13386;SDS011;6763;48.524;9.044;2022-08-01T14:05:38;2.97;;;1.40;;
13386;SDS011;6763;48.524;9.044;2022-08-01T14:08:04;1.50;;;1.40;;
13386;SDS011;6763;48.524;9.044;2022-08-01T14:10:30;1.30;;;1.20;;
13386;SDS011;6763;48.524;9.044;2022-08-01T14:12:56;1.80;;;1.70;;
13386;SDS011;6763;48.524;9.044;2022-08-01T14:15:23;1.73;;;1.35;;
13386;SDS011;6763;48.524;9.044;2022-08-01T14:17:49;2.35;;;1.38;;
13386;SDS011;6763;48.524;9.044;2022-08-01T14:20:14;1.80;;;1.30;;
13386;SDS011;6763;48.524;9.044;2022-08-01T14:22:39;1.50;;;1.23;;
13386;SDS011;6763;48.524;9.044;2022-08-01T14:25:05;1.80;;;1.63;;
13386;SDS011;6763;48.524;9.044;2022-08-01T14:27:31;2.00;;;1.40;;
13386;SDS011;6763;48.524;9.044;2022-08-01T14:30:00;2.05;;;1.85;;
13386;SDS011;6763;48.524;9.044;2022-08-01T14:32:27;1.90;;;1.63;;
13386;SDS011;6763;48.524;9.044;2022-08-01T14:34:52;1.77;;;1.65;;
13386;SDS011;6763;48.524;9.044;2022-08-01T14:37:17;1.90;;;1.67;;
13386;SDS011;6763;48.524;9.044;2022-08-01T14:39:43;2.28;;;1.48;;
13386;SDS011;6763;48.524;9.044;2022-08-01T14:42:08;2.25;;;1.58;;
13386;SDS011;6763;48.524;9.044;2022-08-01T14:44:33;1.50;;;1.40;;
13386;SDS011;6763;48.524;9.044;2022-08-01T14:46:59;1.33;;;1.23;;
13386;SDS011;6763;48.524;9.044;2022-08-01T14:49:24;1.50;;;1.40;;
13386;SDS011;6763;48.524;9.044;2022-08-01T14:51:50;2.90;;;1.67;;
13386;SDS011;6763;48.524;9.044;2022-08-01T14:54:15;1.65;;;1.48;;
13386;SDS011;6763;48.524;9.044;2022-08-01T14:56:41;2.10;;;1.58;;
13386;SDS011;6763;48.524;9.044;2022-08-01T14:59:06;2.22;;;1.70;;
13386;SDS011;6763;48.524;9.044;2022-08-01T15:01:32;1.50;;;1.40;;
13386;SDS011;6763;48.524;9.044;2022-08-01T15:03:57;3.72;;;1.50;;
13386;SDS011;6763;48.524;9.044;2022-08-01T15:06:22;1.70;;;1.30;;
13386;SDS011;6763;48.524;9.044;2022-08-01T15:08:47;1.58;;;1.48;;
13386;SDS011;6763;48.524;9.044;2022-08-01T15:11:13;1.60;;;1.33;;
13386;SDS011;6763;48.524;9.044;2022-08-01T15:13:38;2.05;;;1.60;;
13386;SDS011;6763;48.524;9.044;2022-08-01T15:16:04;1.70;;;1.60;;
13386;SDS011;6763;48.524;9.044;2022-08-01T15:18:29;2.25;;;1.77;;
13386;SDS011;6763;48.524;9.044;2022-08-01T15:20:55;2.10;;;1.90;;
13386;SDS011;6763;48.524;9.044;2022-08-01T15:23:20;2.97;;;1.80;;
13386;SDS011;6763;48.524;9.044;2022-08-01T15:25:46;1.67;;;1.30;;
13386;SDS011;6763;48.524;9.044;2022-08-01T15:28:11;1.60;;;1.50;;
13386;SDS011;6763;48.524;9.044;2022-08-01T15:30:37;2.45;;;1.45;;
13386;SDS011;6763;48.524;9.044;2022-08-01T15:33:03;1.58;;;1.48;;
13386;SDS011;6763;48.524;9.044;2022-08-01T15:35:28;1.73;;;1.60;;
13386;SDS011;6763;48.524;9.044;2022-08-01T15:37:53;2.33;;;2.10;;
13386;SDS011;6763;48.524;9.044;2022-08-01T15:40:19;1.67;;;1.55;;
13386;SDS011;6763;48.524;9.044;2022-08-01T15:42:44;1.48;;;1.38;;
13386;SDS011;6763;48.524;9.044;2022-08-01T15:45:10;1.77;;;1.67;;
13386;SDS011;6763;48.524;9.044;2022-08-01T15:47:37;3.25;;;1.50;;